Time;durP1;ratioP1;P1;durP2;ratioP2;P2;SDS_P1;SDS_P2;PMS_P1;PMS_P2;Temp;Humidity;BMP_temperature;BMP_pressure;BME280_temperature;BME280_humidity;BME280_pressure;Samples;Min_cycle;Max_cycle;Signal;HPM_P1;HPM_P2
2023/02/15 00:00:42;;;;;;;;;9.00;9.00;;;;;;;;117965;1181;24721;-67
2023/02/15 00:03:28;;;;;;;;;11.00;9.33;;;;;;;;117894;1180;25534;-64
2023/02/15 00:05:57;;;;;;;;;10.75;8.75;;;;;;;;117906;1183;25549;-67
2023/02/15 00:08:26;;;;;;;;;9.50;7.50;;;;;;;;117919;1190;25470;-68
2023/02/15 00:11:05;;;;;;;;;6.50;6.50;;;;;;;;117911;1187;24806;-66
2023/02/15 00:13:35;;;;;;;;;9.50;7.00;;;;;;;;117895;1178;25020;-64
2023/02/15 00:16:06;;;;;;;;;10.67;9.67;;;;;;;;117864;1177;25227;-66
2023/02/15 00:18:34;;;;;;;;;7.00;6.00;;;;;;;;117912;1177;25103;-66
2023/02/15 00:21:09;;;;;;;;;6.75;6.50;;;;;;;;117936;1181;25633;-66
2023/02/15 00:23:37;;;;;;;;;14.00;8.50;;;;;;;;117877;1179;25885;-65
2023/02/15 00:26:14;;;;;;;;;8.00;8.00;;;;;;;;117951;1180;24835;-69
2023/02/15 00:28:43;;;;;;;;;8.50;4.50;;;;;;;;117850;1179;25834;-67
2023/02/15 00:31:12;;;;;;;;;9.00;8.00;;;;;;;;117882;1178;24960;-64
2023/02/15 00:33:40;;;;;;;;;8.00;7.00;;;;;;;;117914;1191;25709;-67
2023/02/15 00:36:10;;;;;;;;;7.00;7.00;;;;;;;;117950;1180;25546;-65
2023/02/15 00:38:39;;;;;;;;;10.00;9.00;;;;;;;;117974;1179;25099;-65
2023/02/15 00:41:09;;;;;;;;;9.00;7.50;;;;;;;;117941;1180;25669;-63
2023/02/15 00:43:37;;;;;;;;;7.00;7.00;;;;;;;;117935;1179;25488;-64
2023/02/15 00:46:05;;;;;;;;;9.00;7.50;;;;;;;;117954;1179;25543;-64
2023/02/15 00:48:34;;;;;;;;;8.00;8.00;;;;;;;;117970;1191;25537;-65
2023/02/15 00:51:03;;;;;;;;;5.33;5.00;;;;;;;;117978;1191;24804;-64
2023/02/15 00:53:31;;;;;;;;;6.75;6.00;;;;;;;;117897;1191;25595;-64
2023/02/15 00:56:00;;;;;;;;;6.00;5.25;;;;;;;;117836;1179;25688;-64
2023/02/15 00:58:29;;;;;;;;;9.00;7.00;;;;;;;;117872;1181;25306;-64
2023/02/15 01:01:04;;;;;;;;;6.00;5.50;;;;;;;;117914;1180;25625;-65
2023/02/15 01:03:33;;;;;;;;;11.75;8.00;;;;;;;;117926;1191;25575;-64
2023/02/15 01:06:01;;;;;;;;;8.00;8.00;;;;;;;;117937;1180;25607;-63
2023/02/15 01:08:30;;;;;;;;;9.75;6.75;;;;;;;;117981;1181;24942;-63
2023/02/15 01:11:07;;;;;;;;;6.00;6.00;;;;;;;;117949;1181;25597;-63
2023/02/15 01:13:36;;;;;;;;;8.33;7.33;;;;;;;;117957;1181;25166;-63
2023/02/15 01:16:05;;;;;;;;;8.33;6.67;;;;;;;;117940;1186;25348;-63
2023/02/15 01:18:34;;;;;;;;;7.00;6.50;;;;;;;;117926;1180;25038;-62
2023/02/15 01:21:14;;;;;;;;;8.67;8.00;;;;;;;;117947;1181;24858;-63
2023/02/15 01:23:43;;;;;;;;;7.00;6.33;;;;;;;;117928;1178;25839;-63
2023/02/15 01:26:12;;;;;;;;;6.00;6.00;;;;;;;;117921;1180;24959;-63
2023/02/15 01:28:40;;;;;;;;;8.00;6.00;;;;;;;;117880;1179;25706;-62
2023/02/15 01:31:13;;;;;;;;;7.50;7.50;;;;;;;;117945;1182;25654;-63
2023/02/15 01:33:42;;;;;;;;;11.67;10.00;;;;;;;;117936;1180;24739;-63
2023/02/15 01:36:10;;;;;;;;;8.00;7.50;;;;;;;;117982;1180;25036;-64
2023/02/15 01:38:41;;;;;;;;;7.75;7.75;;;;;;;;117897;1179;25287;-64
2023/02/15 01:41:19;;;;;;;;;9.00;6.50;;;;;;;;117916;1191;25380;-62
2023/02/15 01:43:59;;;;;;;;;6.00;6.00;;;;;;;;117924;1180;25023;-64
2023/02/15 01:46:38;;;;;;;;;9.00;4.00;;;;;;;;117904;1181;25049;-64
2023/02/15 01:49:14;;;;;;;;;7.67;6.00;;;;;;;;117908;1191;24836;-64
2023/02/15 01:51:44;;;;;;;;;8.33;5.00;;;;;;;;117941;1178;26844;-65
2023/02/15 01:54:19;;;;;;;;;7.33;6.00;;;;;;;;117876;1191;25109;-64
2023/02/15 01:56:48;;;;;;;;;4.50;3.50;;;;;;;;117873;1181;24833;-65
2023/02/15 01:59:20;;;;;;;;;7.00;5.50;;;;;;;;117935;1191;25223;-65
2023/02/15 02:01:51;;;;;;;;;7.00;6.67;;;;;;;;117939;1188;24998;-66
2023/02/15 02:04:31;;;;;;;;;11.00;9.33;;;;;;;;117932;1180;25277;-66
2023/02/15 02:07:00;;;;;;;;;9.00;9.00;;;;;;;;117945;1191;25594;-69
2023/02/15 02:09:29;;;;;;;;;7.00;6.67;;;;;;;;117855;1180;25256;-71
2023/02/15 02:11:58;;;;;;;;;7.00;7.00;;;;;;;;117870;1179;25334;-70
2023/02/15 02:14:26;;;;;;;;;5.67;5.00;;;;;;;;117868;1183;24927;-65
2023/02/15 02:17:23;;;;;;;;;6.25;6.25;;;;;;;;117879;1181;25577;-63
2023/02/15 02:20:23;;;;;;;;;9.00;9.00;;;;;;;;117855;1181;25479;-61
2023/02/15 02:22:51;;;;;;;;;8.00;6.50;;;;;;;;117819;1181;25720;-63
2023/02/15 02:25:36;;;;;;;;;10.00;8.50;;;;;;;;117879;1191;25731;-63
2023/02/15 02:28:42;;;;;;;;;8.33;7.00;;;;;;;;117856;1180;24966;-65
2023/02/15 02:31:34;;;;;;;;;6.50;5.50;;;;;;;;117924;1180;25036;-64
2023/02/15 02:34:17;;;;;;;;;5.75;5.75;;;;;;;;117945;1181;25093;-64
2023/02/15 02:36:57;;;;;;;;;5.25;5.25;;;;;;;;117940;1181;25532;-64
2023/02/15 02:39:47;;;;;;;;;6.00;6.00;;;;;;;;117947;1180;25103;-64
2023/02/15 02:42:29;;;;;;;;;5.00;5.00;;;;;;;;117956;1187;25808;-64
2023/02/15 02:45:05;;;;;;;;;6.50;6.00;;;;;;;;117869;1191;25614;-63
2023/02/15 02:47:43;;;;;;;;;5.33;4.67;;;;;;;;117873;1180;24984;-64
2023/02/15 02:50:15;;;;;;;;;7.00;7.00;;;;;;;;117892;1191;25048;-63
2023/02/15 02:52:46;;;;;;;;;8.33;6.00;;;;;;;;117828;1181;25564;-64
2023/02/15 02:55:38;;;;;;;;;5.00;4.75;;;;;;;;117905;1177;24861;-64
2023/02/15 02:58:27;;;;;;;;;6.00;5.00;;;;;;;;117915;1191;25340;-64
2023/02/15 03:01:01;;;;;;;;;6.25;5.50;;;;;;;;117911;1180;25242;-64
2023/02/15 03:03:42;;;;;;;;;10.67;8.00;;;;;;;;117871;1191;24708;-67
2023/02/15 03:06:17;;;;;;;;;6.00;5.67;;;;;;;;117875;1187;25607;-69
2023/02/15 03:08:50;;;;;;;;;6.00;6.00;;;;;;;;117898;1191;25529;-64
2023/02/15 03:11:18;;;;;;;;;8.50;7.00;;;;;;;;117950;1190;24842;-64
2023/02/15 03:13:49;;;;;;;;;8.75;6.25;;;;;;;;117956;1181;25505;-64
2023/02/15 03:16:27;;;;;;;;;7.00;6.00;;;;;;;;117915;1180;25001;-63
2023/02/15 03:19:08;;;;;;;;;8.33;5.67;;;;;;;;117936;1191;25628;-64
2023/02/15 03:21:49;;;;;;;;;7.00;6.33;;;;;;;;117942;1180;26043;-62
2023/02/15 03:24:21;;;;;;;;;7.00;5.00;;;;;;;;117969;1184;25010;-63
2023/02/15 03:26:51;;;;;;;;;7.00;7.00;;;;;;;;117930;1190;24774;-64
2023/02/15 03:29:23;;;;;;;;;6.50;6.50;;;;;;;;117950;1179;24812;-64
2023/02/15 03:31:57;;;;;;;;;7.00;7.00;;;;;;;;117914;1179;25599;-63
2023/02/15 03:34:26;;;;;;;;;6.00;6.00;;;;;;;;117933;1184;25766;-64
2023/02/15 03:37:03;;;;;;;;;8.67;8.33;;;;;;;;117952;1180;25403;-64
2023/02/15 03:39:54;;;;;;;;;7.00;6.25;;;;;;;;117919;1179;25631;-64
2023/02/15 03:42:29;;;;;;;;;8.50;7.00;;;;;;;;117957;1180;25561;-63
2023/02/15 03:45:02;;;;;;;;;7.00;7.00;;;;;;;;117937;1180;25235;-64
2023/02/15 03:47:40;;;;;;;;;9.00;6.00;;;;;;;;117942;1180;25631;-64
2023/02/15 03:53:16;;;;;;;;;4.33;4.33;;;;;;;;117912;1179;25390;-63
2023/02/15 03:55:54;;;;;;;;;8.00;7.00;;;;;;;;117908;1191;25648;-63
2023/02/15 04:04:34;;;;;;;;;9.00;7.67;;;;;;;;117865;1191;26408;-63
2023/02/15 04:07:05;;;;;;;;;2.75;2.50;;;;;;;;117932;1179;25537;-64
2023/02/15 04:12:21;;;;;;;;;7.67;5.67;;;;;;;;117840;1180;25127;-65
2023/02/15 04:17:37;;;;;;;;;5.67;5.00;;;;;;;;117820;1184;24827;-63
2023/02/15 04:25:42;;;;;;;;;6.33;4.67;;;;;;;;117969;1177;24980;-63
2023/02/15 04:28:10;;;;;;;;;8.25;7.00;;;;;;;;117943;1177;25197;-63
2023/02/15 04:30:39;;;;;;;;;4.67;4.67;;;;;;;;117925;1177;25579;-63
2023/02/15 04:33:07;;;;;;;;;6.00;5.00;;;;;;;;117865;1177;25581;-63
2023/02/15 04:35:36;;;;;;;;;5.75;4.75;;;;;;;;117835;1177;25497;-62
2023/02/15 04:38:04;;;;;;;;;6.50;5.00;;;;;;;;117841;1177;25214;-61
2023/02/15 04:40:33;;;;;;;;;9.33;7.00;;;;;;;;117882;1190;25595;-63
2023/02/15 04:43:01;;;;;;;;;6.00;5.00;;;;;;;;117933;1177;24788;-63
2023/02/15 04:45:30;;;;;;;;;5.00;5.00;;;;;;;;117960;1177;26028;-63
2023/02/15 04:47:58;;;;;;;;;4.00;4.00;;;;;;;;117936;1177;25631;-62
2023/02/15 04:50:27;;;;;;;;;4.50;4.50;;;;;;;;117879;1177;27152;-63
2023/02/15 04:52:55;;;;;;;;;7.50;5.00;;;;;;;;117849;1177;25116;-63
2023/02/15 04:55:24;;;;;;;;;7.50;6.75;;;;;;;;117939;1180;25279;-62
2023/02/15 04:57:52;;;;;;;;;6.00;6.00;;;;;;;;117867;1180;24734;-61
2023/02/15 05:00:21;;;;;;;;;6.50;6.50;;;;;;;;117839;1190;25785;-62
2023/02/15 05:02:49;;;;;;;;;6.00;6.00;;;;;;;;117924;1184;24743;-61
2023/02/15 05:05:18;;;;;;;;;8.25;5.50;;;;;;;;117937;1177;25326;-63
2023/02/15 05:07:47;;;;;;;;;7.00;5.75;;;;;;;;117994;1177;25414;-63
2023/02/15 05:10:16;;;;;;;;;7.50;5.00;;;;;;;;117959;1184;24663;-63
2023/02/15 05:12:44;;;;;;;;;7.00;5.00;;;;;;;;117962;1179;24765;-62
2023/02/15 05:15:12;;;;;;;;;7.00;7.00;;;;;;;;117913;1182;25570;-63
2023/02/15 05:17:41;;;;;;;;;9.25;5.00;;;;;;;;117955;1191;25497;-62
2023/02/15 05:20:10;;;;;;;;;6.00;5.00;;;;;;;;117907;1191;24939;-61
2023/02/15 05:22:40;;;;;;;;;8.00;7.00;;;;;;;;117950;1177;25677;-63
2023/02/15 05:30:44;;;;;;;;;8.00;6.00;;;;;;;;117978;1191;25530;-62
2023/02/15 05:33:13;;;;;;;;;5.00;5.00;;;;;;;;117955;1180;25670;-63
2023/02/15 05:35:42;;;;;;;;;9.00;6.00;;;;;;;;117886;1180;26116;-61
2023/02/15 05:38:10;;;;;;;;;9.00;7.33;;;;;;;;117918;1191;25665;-62
2023/02/15 05:40:38;;;;;;;;;7.33;7.00;;;;;;;;117889;1187;25398;-63
2023/02/15 05:43:07;;;;;;;;;6.00;5.50;;;;;;;;117877;1190;26072;-63
2023/02/15 05:45:35;;;;;;;;;6.00;6.00;;;;;;;;117884;1183;25297;-64
2023/02/15 05:48:04;;;;;;;;;6.00;5.67;;;;;;;;117815;1181;25219;-64
2023/02/15 05:50:32;;;;;;;;;7.67;7.67;;;;;;;;117934;1187;24775;-63
2023/02/15 05:53:01;;;;;;;;;7.33;6.67;;;;;;;;117885;1180;24994;-63
2023/02/15 05:55:29;;;;;;;;;7.00;6.50;;;;;;;;117926;1180;25044;-63
2023/02/15 05:57:57;;;;;;;;;7.00;6.50;;;;;;;;117843;1184;24905;-63
2023/02/15 06:00:26;;;;;;;;;4.50;4.50;;;;;;;;117896;1177;25228;-63
2023/02/15 06:02:54;;;;;;;;;6.25;6.25;;;;;;;;117862;1180;25666;-63
2023/02/15 06:05:23;;;;;;;;;7.75;6.00;;;;;;;;117918;1179;25102;-63
2023/02/15 06:07:51;;;;;;;;;8.50;7.00;;;;;;;;117885;1179;26452;-63
2023/02/15 06:10:20;;;;;;;;;8.50;7.25;;;;;;;;117851;1185;25601;-62
2023/02/15 06:12:49;;;;;;;;;6.00;5.00;;;;;;;;117893;1177;25127;-63
2023/02/15 06:15:18;;;;;;;;;9.33;8.00;;;;;;;;117866;1191;25419;-62
2023/02/15 06:17:47;;;;;;;;;7.00;6.50;;;;;;;;118587;1182;25236;-63
2023/02/15 06:20:16;;;;;;;;;9.00;8.00;;;;;;;;117819;1180;25374;-62
2023/02/15 06:22:44;;;;;;;;;6.25;6.00;;;;;;;;117808;1190;24703;-64
2023/02/15 06:25:12;;;;;;;;;8.25;6.75;;;;;;;;117893;1177;25009;-63
2023/02/15 06:27:42;;;;;;;;;7.00;6.00;;;;;;;;117939;1177;25115;-62
2023/02/15 06:30:11;;;;;;;;;7.00;7.00;;;;;;;;117909;1181;25284;-62
2023/02/15 06:32:40;;;;;;;;;4.00;4.00;;;;;;;;117967;1177;24743;-62
2023/02/15 06:35:08;;;;;;;;;12.00;8.00;;;;;;;;117957;1178;25036;-62
2023/02/15 06:37:37;;;;;;;;;12.00;8.25;;;;;;;;117904;1180;24811;-62
2023/02/15 06:40:07;;;;;;;;;13.00;9.00;;;;;;;;117915;1180;25255;-62
2023/02/15 06:42:36;;;;;;;;;8.50;7.50;;;;;;;;117871;1181;25044;-63
2023/02/15 06:45:05;;;;;;;;;6.33;6.33;;;;;;;;117856;1178;25398;-63
2023/02/15 06:47:36;;;;;;;;;9.50;8.00;;;;;;;;117859;1181;25119;-64
2023/02/15 06:50:06;;;;;;;;;16.00;10.00;;;;;;;;117927;1178;24803;-66
2023/02/15 06:52:34;;;;;;;;;11.75;9.00;;;;;;;;117945;1190;25441;-63
2023/02/15 06:55:03;;;;;;;;;13.00;9.50;;;;;;;;117946;1180;25005;-60
2023/02/15 06:57:32;;;;;;;;;10.50;8.75;;;;;;;;117957;1181;24956;-62
2023/02/15 07:00:02;;;;;;;;;9.00;8.75;;;;;;;;117893;1180;25440;-60
2023/02/15 07:02:31;;;;;;;;;10.75;9.50;;;;;;;;117918;1191;25694;-61
2023/02/15 07:04:59;;;;;;;;;12.00;9.67;;;;;;;;117899;1180;24858;-61
2023/02/15 07:07:28;;;;;;;;;7.75;7.75;;;;;;;;117835;1180;25494;-59
2023/02/15 07:09:56;;;;;;;;;11.00;10.00;;;;;;;;117918;1181;25308;-61
2023/02/15 07:12:45;;;;;;;;;12.00;10.00;;;;;;;;117937;1190;25332;-62
2023/02/15 07:15:16;;;;;;;;;11.25;9.00;;;;;;;;117882;1177;24972;-63
2023/02/15 07:17:45;;;;;;;;;13.67;9.67;;;;;;;;117881;1187;25415;-59
2023/02/15 07:20:19;;;;;;;;;12.67;10.67;;;;;;;;117901;1179;25571;-62
2023/02/15 07:22:48;;;;;;;;;13.00;11.00;;;;;;;;117927;1184;24954;-63
2023/02/15 07:25:17;;;;;;;;;11.00;8.00;;;;;;;;117922;1187;24946;-63
2023/02/15 07:27:46;;;;;;;;;12.50;8.00;;;;;;;;117911;1190;25763;-63
2023/02/15 07:30:16;;;;;;;;;14.00;9.33;;;;;;;;117871;1190;25679;-63
2023/02/15 07:35:33;;;;;;;;;10.00;10.00;;;;;;;;118316;1177;25572;-69
2023/02/15 07:38:02;;;;;;;;;14.00;12.00;;;;;;;;117901;1181;25518;-65
2023/02/15 07:40:30;;;;;;;;;13.50;11.50;;;;;;;;117890;1177;24869;-61
2023/02/15 07:42:59;;;;;;;;;17.00;14.50;;;;;;;;117843;1179;25378;-61
2023/02/15 07:45:27;;;;;;;;;14.33;10.67;;;;;;;;117826;1190;24953;-61
2023/02/15 07:47:56;;;;;;;;;12.50;9.50;;;;;;;;117857;1177;25186;-63
2023/02/15 07:50:25;;;;;;;;;14.00;12.50;;;;;;;;117861;1177;25361;-60
2023/02/15 07:52:53;;;;;;;;;10.67;10.67;;;;;;;;117856;1180;25691;-61
2023/02/15 07:55:22;;;;;;;;;16.25;14.00;;;;;;;;117875;1179;24998;-61
2023/02/15 07:57:51;;;;;;;;;9.00;9.00;;;;;;;;117847;1183;26093;-61
2023/02/15 08:00:24;;;;;;;;;13.00;12.25;;;;;;;;117836;1181;25708;-62
2023/02/15 08:03:13;;;;;;;;;16.00;13.00;;;;;;;;117840;1180;25521;-65
2023/02/15 08:05:44;;;;;;;;;17.33;12.00;;;;;;;;117913;1180;24742;-63
2023/02/15 08:08:29;;;;;;;;;16.00;15.00;;;;;;;;117933;1177;24979;-64
2023/02/15 08:13:55;;;;;;;;;11.33;11.33;;;;;;;;117822;1190;25409;-63
2023/02/15 08:16:29;;;;;;;;;15.25;12.00;;;;;;;;117828;1178;25353;-64
2023/02/15 08:18:59;;;;;;;;;15.67;13.67;;;;;;;;117888;1179;25189;-63
2023/02/15 08:21:29;;;;;;;;;16.00;14.00;;;;;;;;117818;1179;25747;-63
2023/02/15 08:23:59;;;;;;;;;14.00;13.00;;;;;;;;117800;1180;25200;-63
2023/02/15 08:26:28;;;;;;;;;18.33;11.67;;;;;;;;117790;1178;24723;-64
2023/02/15 08:28:58;;;;;;;;;13.67;12.67;;;;;;;;117823;1191;25549;-64
2023/02/15 08:31:26;;;;;;;;;10.33;7.00;;;;;;;;117782;1177;25118;-64
2023/02/15 08:33:56;;;;;;;;;17.67;15.33;;;;;;;;117894;1177;25251;-61
2023/02/15 08:36:28;;;;;;;;;14.00;11.33;;;;;;;;117918;1183;25347;-66
2023/02/15 08:38:58;;;;;;;;;16.25;14.50;;;;;;;;117910;1190;25062;-59
2023/02/15 08:41:32;;;;;;;;;10.00;8.67;;;;;;;;117931;1184;25435;-66
2023/02/15 08:44:03;;;;;;;;;14.50;14.00;;;;;;;;117867;1177;25720;-64
2023/02/15 08:46:34;;;;;;;;;16.00;13.00;;;;;;;;117895;1190;25660;-67
2023/02/15 08:49:03;;;;;;;;;16.50;12.75;;;;;;;;117855;1177;24722;-64
2023/02/15 08:51:34;;;;;;;;;13.50;11.50;;;;;;;;119592;1191;24874;-62
2023/02/15 08:54:09;;;;;;;;;17.00;14.50;;;;;;;;117837;1180;25666;-63
2023/02/15 08:56:40;;;;;;;;;12.50;11.00;;;;;;;;117925;1177;25014;-64
2023/02/15 08:59:15;;;;;;;;;18.25;13.25;;;;;;;;117900;1178;25270;-60
2023/02/15 09:01:44;;;;;;;;;18.67;15.67;;;;;;;;117898;1177;24850;-63
2023/02/15 09:04:12;;;;;;;;;21.00;17.00;;;;;;;;117909;1184;25237;-68
2023/02/15 09:06:43;;;;;;;;;19.00;16.00;;;;;;;;117881;1190;25579;-63
2023/02/15 09:09:16;;;;;;;;;20.33;17.00;;;;;;;;117889;1177;25141;-65
2023/02/15 09:11:47;;;;;;;;;20.67;17.00;;;;;;;;117872;1183;25265;-62
2023/02/15 09:14:19;;;;;;;;;23.00;18.00;;;;;;;;117884;1182;25138;-61
2023/02/15 09:16:50;;;;;;;;;15.25;13.50;;;;;;;;117857;1183;24845;-61
2023/02/15 09:19:21;;;;;;;;;17.00;16.00;;;;;;;;117890;1187;24831;-62
2023/02/15 09:21:49;;;;;;;;;20.50;17.00;;;;;;;;117904;1190;24819;-64
2023/02/15 09:24:18;;;;;;;;;23.00;20.00;;;;;;;;117925;1181;25289;-59
2023/02/15 09:26:48;;;;;;;;;20.00;16.00;;;;;;;;117896;1190;25155;-58
2023/02/15 09:29:18;;;;;;;;;20.50;18.00;;;;;;;;117917;1190;25323;-60
2023/02/15 09:31:48;;;;;;;;;18.75;15.75;;;;;;;;117904;1181;24928;-65
2023/02/15 09:34:19;;;;;;;;;23.50;17.75;;;;;;;;117939;1177;24962;-60
2023/02/15 09:36:49;;;;;;;;;21.33;18.00;;;;;;;;117902;1177;24870;-59
2023/02/15 09:39:26;;;;;;;;;17.50;15.00;;;;;;;;117941;1190;25268;-59
2023/02/15 09:42:32;;;;;;;;;14.50;12.50;;;;;;;;117932;1180;25385;-60
2023/02/15 09:45:19;;;;;;;;;18.33;15.67;;;;;;;;117929;1181;24771;-60
2023/02/15 09:48:12;;;;;;;;;16.00;15.00;;;;;;;;117859;1183;25658;-59
2023/02/15 09:51:18;;;;;;;;;13.50;11.50;;;;;;;;117849;1190;24756;-58
2023/02/15 09:54:00;;;;;;;;;14.50;11.25;;;;;;;;117874;1183;25195;-59
2023/02/15 09:56:37;;;;;;;;;11.50;8.50;;;;;;;;117796;1177;25458;-60
2023/02/15 09:59:30;;;;;;;;;12.00;10.75;;;;;;;;117843;1177;25469;-61
2023/02/15 10:02:24;;;;;;;;;14.00;10.67;;;;;;;;117866;1177;25085;-60
2023/02/15 10:05:31;;;;;;;;;12.00;10.75;;;;;;;;117894;1191;24910;-60
2023/02/15 10:08:15;;;;;;;;;11.67;10.00;;;;;;;;117836;1177;25582;-60
2023/02/15 10:10:47;;;;;;;;;17.75;12.50;;;;;;;;117834;1177;24938;-60
2023/02/15 10:13:23;;;;;;;;;16.00;15.00;;;;;;;;117903;1177;25627;-60
2023/02/15 10:16:16;;;;;;;;;16.33;12.00;;;;;;;;117844;1187;26949;-59
2023/02/15 10:19:13;;;;;;;;;13.00;10.50;;;;;;;;117909;1180;25526;-60
2023/02/15 10:21:45;;;;;;;;;15.67;11.00;;;;;;;;117928;1180;25615;-60
2023/02/15 10:24:15;;;;;;;;;13.67;12.00;;;;;;;;117907;1190;25162;-60
2023/02/15 10:26:46;;;;;;;;;15.67;10.67;;;;;;;;117878;1180;24702;-60
2023/02/15 10:29:31;;;;;;;;;12.25;11.75;;;;;;;;117807;1177;26148;-63
2023/02/15 10:32:05;;;;;;;;;15.50;11.75;;;;;;;;117943;1177;25029;-64
2023/02/15 10:34:35;;;;;;;;;14.50;12.00;;;;;;;;117886;1182;25143;-67
2023/02/15 10:37:28;;;;;;;;;10.25;10.00;;;;;;;;117889;1184;24717;-60
2023/02/15 10:40:00;;;;;;;;;16.00;10.67;;;;;;;;117879;1180;25374;-60
2023/02/15 10:42:47;;;;;;;;;13.00;11.67;;;;;;;;117861;1185;25234;-60
2023/02/15 10:45:56;;;;;;;;;14.00;11.00;;;;;;;;117904;1179;25602;-60
2023/02/15 10:48:27;;;;;;;;;11.33;10.00;;;;;;;;117476;1193;25376;-60
2023/02/15 10:51:25;;;;;;;;;9.00;8.75;;;;;;;;117897;1177;24995;-60
2023/02/15 10:54:23;;;;;;;;;12.00;10.00;;;;;;;;117857;1186;25705;-60
2023/02/15 10:57:09;;;;;;;;;11.25;10.25;;;;;;;;117675;1190;25646;-60
2023/02/15 10:59:59;;;;;;;;;14.25;11.25;;;;;;;;117882;1177;25436;-60
2023/02/15 11:03:06;;;;;;;;;12.50;10.50;;;;;;;;117917;1180;24798;-61
2023/02/15 11:05:40;;;;;;;;;12.00;12.00;;;;;;;;117568;1186;25122;-60
2023/02/15 11:08:10;;;;;;;;;13.00;10.00;;;;;;;;117862;1179;24874;-60
2023/02/15 11:11:01;;;;;;;;;11.00;8.67;;;;;;;;117906;1179;25786;-60
2023/02/15 11:13:35;;;;;;;;;11.50;10.00;;;;;;;;117832;1180;25187;-61
2023/02/15 11:16:11;;;;;;;;;9.00;3.00;;;;;;;;117882;1180;24809;-62
2023/02/15 11:18:43;;;;;;;;;8.50;8.50;;;;;;;;117805;1187;25207;-61
2023/02/15 11:21:36;;;;;;;;;10.00;9.00;;;;;;;;117914;1184;25112;-60
2023/02/15 11:24:11;;;;;;;;;10.67;9.00;;;;;;;;117907;1181;25091;-60
2023/02/15 11:26:49;;;;;;;;;11.00;10.00;;;;;;;;117868;1177;25182;-60
2023/02/15 11:29:28;;;;;;;;;13.00;10.00;;;;;;;;117904;1190;25539;-61
2023/02/15 11:32:02;;;;;;;;;10.00;10.00;;;;;;;;117942;1177;24882;-61
2023/02/15 11:34:37;;;;;;;;;9.67;8.33;;;;;;;;117858;1177;25682;-60
2023/02/15 11:37:11;;;;;;;;;12.00;9.67;;;;;;;;117924;1179;24984;-60
2023/02/15 11:39:40;;;;;;;;;11.50;10.00;;;;;;;;117928;1179;25432;-60
2023/02/15 11:42:14;;;;;;;;;11.33;9.67;;;;;;;;117958;1182;25246;-59
2023/02/15 11:45:06;;;;;;;;;10.50;9.00;;;;;;;;117882;1190;25092;-60
2023/02/15 11:47:35;;;;;;;;;10.33;9.00;;;;;;;;117937;1190;24777;-60
2023/02/15 11:50:04;;;;;;;;;12.00;9.67;;;;;;;;117907;1180;25400;-61
2023/02/15 11:52:32;;;;;;;;;10.00;10.00;;;;;;;;117867;1191;25612;-61
2023/02/15 11:55:01;;;;;;;;;12.33;9.33;;;;;;;;117915;1191;26142;-62
2023/02/15 11:57:40;;;;;;;;;10.50;8.75;;;;;;;;117932;1177;25293;-61
2023/02/15 12:00:21;;;;;;;;;10.00;8.33;;;;;;;;117842;1183;25255;-61
2023/02/15 12:02:52;;;;;;;;;9.00;7.50;;;;;;;;117859;1184;25323;-61
2023/02/15 12:05:24;;;;;;;;;10.50;7.50;;;;;;;;117913;1182;25472;-61
2023/02/15 12:08:03;;;;;;;;;5.33;5.00;;;;;;;;117928;1177;25341;-61
2023/02/15 12:10:38;;;;;;;;;11.67;11.00;;;;;;;;117886;1190;24921;-60
2023/02/15 12:13:15;;;;;;;;;15.00;9.00;;;;;;;;117917;1179;25110;-60
2023/02/15 12:15:47;;;;;;;;;11.00;11.00;;;;;;;;117942;1177;25051;-62
2023/02/15 12:18:21;;;;;;;;;8.50;7.50;;;;;;;;117927;1190;25412;-62
2023/02/15 12:20:50;;;;;;;;;10.67;9.33;;;;;;;;117900;1184;25534;-61
2023/02/15 12:23:19;;;;;;;;;10.50;9.00;;;;;;;;117919;1182;25077;-67
2023/02/15 12:25:55;;;;;;;;;8.00;7.00;;;;;;;;117904;1190;25271;-61
2023/02/15 12:28:34;;;;;;;;;12.25;9.00;;;;;;;;117878;1187;24822;-60
2023/02/15 12:31:09;;;;;;;;;11.50;9.00;;;;;;;;117823;1181;25523;-60
2023/02/15 12:33:45;;;;;;;;;9.00;7.67;;;;;;;;117796;1183;25014;-60
2023/02/15 12:36:29;;;;;;;;;12.33;7.33;;;;;;;;117852;1181;24735;-60
2023/02/15 12:39:19;;;;;;;;;11.25;7.50;;;;;;;;117841;1180;25633;-61
2023/02/15 12:41:53;;;;;;;;;8.50;8.00;;;;;;;;117838;1177;25395;-62
2023/02/15 12:44:28;;;;;;;;;9.33;8.33;;;;;;;;117914;1184;25620;-61
2023/02/15 12:47:16;;;;;;;;;10.75;8.00;;;;;;;;117903;1178;25165;-61
2023/02/15 12:49:51;;;;;;;;;16.00;11.00;;;;;;;;117840;1188;25126;-61
2023/02/15 12:52:22;;;;;;;;;10.50;8.75;;;;;;;;117947;1179;29645;-62
2023/02/15 12:54:51;;;;;;;;;15.00;10.00;;;;;;;;117864;1180;25401;-61
2023/02/15 12:57:30;;;;;;;;;7.00;5.33;;;;;;;;117904;1177;24770;-62
2023/02/15 13:00:01;;;;;;;;;3.00;2.00;;;;;;;;117899;1184;25533;-61
2023/02/15 13:02:46;;;;;;;;;10.50;7.50;;;;;;;;117932;1177;24895;-61
2023/02/15 13:05:35;;;;;;;;;8.00;5.00;;;;;;;;117856;1180;25367;-60
2023/02/15 13:08:11;;;;;;;;;10.67;9.00;;;;;;;;117834;1191;25468;-61
2023/02/15 13:11:00;;;;;;;;;14.00;10.00;;;;;;;;117889;1181;24750;-62
2023/02/15 13:13:31;;;;;;;;;6.50;5.00;;;;;;;;117838;1181;25596;-61
2023/02/15 13:16:07;;;;;;;;;10.00;8.00;;;;;;;;117849;1180;24862;-60
2023/02/15 13:18:44;;;;;;;;;8.00;8.00;;;;;;;;117919;1179;24727;-61
2023/02/15 13:21:16;;;;;;;;;8.50;7.50;;;;;;;;117878;1177;24893;-62
2023/02/15 13:23:52;;;;;;;;;11.00;7.50;;;;;;;;117924;1184;24779;-60
2023/02/15 13:26:22;;;;;;;;;8.00;7.33;;;;;;;;117866;1183;24978;-60
2023/02/15 13:28:56;;;;;;;;;9.50;8.75;;;;;;;;117932;1178;25097;-61
2023/02/15 13:31:28;;;;;;;;;6.50;6.00;;;;;;;;117905;1187;24966;-60
2023/02/15 13:34:13;;;;;;;;;9.00;7.00;;;;;;;;117902;1190;24983;-61
2023/02/15 13:36:55;;;;;;;;;7.67;6.67;;;;;;;;117840;1180;25646;-61
2023/02/15 13:39:30;;;;;;;;;9.00;6.00;;;;;;;;117882;1191;25358;-61
2023/02/15 13:42:23;;;;;;;;;10.33;8.00;;;;;;;;117938;1179;26384;-60
2023/02/15 13:45:03;;;;;;;;;7.67;6.33;;;;;;;;117841;1181;24799;-60
2023/02/15 13:47:50;;;;;;;;;7.00;6.00;;;;;;;;117927;1182;25225;-60
2023/02/15 13:50:22;;;;;;;;;11.25;7.00;;;;;;;;117917;1183;25045;-68
2023/02/15 13:53:23;;;;;;;;;9.50;6.00;;;;;;;;117847;1190;24967;-59
2023/02/15 13:56:37;;;;;;;;;6.25;4.50;;;;;;;;117910;1177;24801;-61
2023/02/15 13:59:07;;;;;;;;;9.00;8.33;;;;;;;;117949;1177;25002;-60
2023/02/15 14:01:47;;;;;;;;;10.00;5.67;;;;;;;;117939;1177;25253;-60
2023/02/15 14:04:40;;;;;;;;;9.00;7.00;;;;;;;;117929;1177;25089;-59
2023/02/15 14:07:33;;;;;;;;;8.33;6.00;;;;;;;;117854;1177;24990;-61
2023/02/15 14:10:20;;;;;;;;;7.50;7.00;;;;;;;;117894;1177;25613;-60
2023/02/15 14:13:10;;;;;;;;;8.50;7.50;;;;;;;;117924;1190;25589;-59
2023/02/15 14:15:59;;;;;;;;;6.25;6.25;;;;;;;;117819;1177;25236;-61
2023/02/15 14:18:36;;;;;;;;;9.67;8.67;;;;;;;;117970;1178;25499;-66
2023/02/15 14:21:04;;;;;;;;;6.67;6.67;;;;;;;;117967;1190;25192;-62
2023/02/15 14:23:39;;;;;;;;;13.00;8.67;;;;;;;;117964;1177;24939;-60
2023/02/15 14:26:31;;;;;;;;;5.67;5.67;;;;;;;;117909;1178;25663;-60
2023/02/15 14:29:32;;;;;;;;;6.00;5.25;;;;;;;;117879;1187;25106;-60
2023/02/15 14:32:10;;;;;;;;;5.00;5.00;;;;;;;;117825;1177;25974;-60
2023/02/15 14:35:00;;;;;;;;;8.00;8.00;;;;;;;;117886;1190;25155;-61
2023/02/15 14:37:50;;;;;;;;;9.00;7.75;;;;;;;;117925;1177;25473;-59
2023/02/15 14:43:44;;;;;;;;;8.00;7.00;;;;;;;;117844;1182;24813;-58
2023/02/15 14:46:34;;;;;;;;;4.00;4.00;;;;;;;;117826;1180;26232;-59
2023/02/15 14:49:41;;;;;;;;;8.00;6.00;;;;;;;;117799;1177;25093;-58
2023/02/15 14:52:11;;;;;;;;;8.00;6.00;;;;;;;;117444;1184;25401;-57
2023/02/15 14:54:39;;;;;;;;;10.00;6.50;;;;;;;;117473;1183;25275;-59
2023/02/15 14:57:08;;;;;;;;;13.50;9.00;;;;;;;;117689;1183;24780;-57
2023/02/15 14:59:58;;;;;;;;;9.00;7.50;;;;;;;;117916;1177;26420;-57
2023/02/15 15:02:40;;;;;;;;;9.00;4.00;;;;;;;;117873;1177;25242;-57
2023/02/15 15:05:30;;;;;;;;;13.25;8.00;;;;;;;;117919;1185;25781;-60
2023/02/15 15:08:01;;;;;;;;;9.67;9.00;;;;;;;;117922;1190;25683;-58
2023/02/15 15:10:39;;;;;;;;;8.25;7.00;;;;;;;;117943;1178;25557;-59
2023/02/15 15:13:32;;;;;;;;;8.00;7.67;;;;;;;;117950;1190;25636;-58
2023/02/15 15:16:31;;;;;;;;;9.75;7.50;;;;;;;;117847;1183;25614;-59
2023/02/15 15:19:01;;;;;;;;;9.00;7.00;;;;;;;;117901;1181;25671;-60
2023/02/15 15:21:56;;;;;;;;;9.00;7.67;;;;;;;;117957;1177;24929;-60
2023/02/15 15:24:37;;;;;;;;;10.50;7.50;;;;;;;;117899;1181;25158;-60
2023/02/15 15:27:43;;;;;;;;;12.50;8.00;;;;;;;;117937;1187;25670;-59
2023/02/15 15:30:14;;;;;;;;;10.25;7.75;;;;;;;;117901;1182;25017;-59
2023/02/15 15:32:46;;;;;;;;;12.33;8.67;;;;;;;;117886;1190;25108;-58
2023/02/15 15:35:43;;;;;;;;;9.00;8.00;;;;;;;;117952;1177;25805;-58
2023/02/15 15:38:32;;;;;;;;;11.50;10.00;;;;;;;;117934;1177;24840;-60
2023/02/15 15:41:03;;;;;;;;;8.00;7.00;;;;;;;;117958;1183;25010;-59
2023/02/15 15:43:55;;;;;;;;;8.00;6.00;;;;;;;;117973;1187;24995;-59